createdAt,value
2018-07-30T00:00:04.232Z,0.00
2018-07-30T00:01:04.162Z,0.00
2018-07-30T00:02:04.095Z,0.00
2018-07-30T00:03:04.042Z,0.00
2018-07-30T00:04:03.957Z,0.00
2018-07-30T00:05:03.924Z,0.00
2018-07-30T00:06:03.827Z,0.00
2018-07-30T00:07:03.735Z,0.00
2018-07-30T00:08:03.668Z,0.00
2018-07-30T00:09:03.595Z,0.00
2018-07-30T00:10:03.525Z,0.00
2018-07-30T00:11:03.453Z,0.00
2018-07-30T00:12:03.380Z,0.00
2018-07-30T00:13:03.311Z,0.00
2018-07-30T00:14:03.247Z,0.00
2018-07-30T00:15:03.170Z,0.00
2018-07-30T00:16:03.099Z,0.00
2018-07-30T00:17:03.026Z,0.00
2018-07-30T00:18:02.956Z,0.00
2018-07-30T00:19:02.886Z,0.00
2018-07-30T00:20:02.844Z,0.00
2018-07-30T00:21:02.743Z,0.00
2018-07-30T00:22:02.675Z,0.00
2018-07-30T00:23:02.610Z,0.00
2018-07-30T00:24:02.529Z,0.00
2018-07-30T00:25:02.455Z,0.00
2018-07-30T00:26:02.389Z,0.00
2018-07-30T00:27:02.329Z,0.00
2018-07-30T00:28:02.245Z,0.00
2018-07-30T00:29:02.173Z,0.00
2018-07-30T00:30:02.101Z,0.00
2018-07-30T00:31:02.041Z,0.00
2018-07-30T00:32:01.958Z,0.00
2018-07-30T00:33:01.889Z,0.00
2018-07-30T00:34:01.817Z,0.00
2018-07-30T00:35:01.751Z,0.00
2018-07-30T00:36:01.673Z,0.00
2018-07-30T00:37:01.604Z,0.00
2018-07-30T00:38:01.537Z,0.00
2018-07-30T00:39:01.459Z,0.00
2018-07-30T00:40:01.394Z,0.00
2018-07-30T00:41:01.314Z,0.00
2018-07-30T00:42:01.247Z,0.00
2018-07-30T00:43:01.191Z,0.00
2018-07-30T00:44:01.112Z,0.00
2018-07-30T00:45:01.030Z,0.00
2018-07-30T00:46:00.957Z,0.00
2018-07-30T00:47:00.888Z,0.00
2018-07-30T00:48:00.815Z,0.00
2018-07-30T00:49:00.742Z,0.00
2018-07-30T00:50:00.672Z,0.00
2018-07-30T00:51:00.601Z,0.00
2018-07-30T00:52:00.529Z,0.00
2018-07-30T00:53:00.464Z,0.00
2018-07-30T00:54:00.385Z,0.00
2018-07-30T00:55:00.369Z,0.00
2018-07-30T00:56:00.265Z,0.00
2018-07-30T00:57:00.170Z,0.00
2018-07-30T00:58:00.136Z,0.00
2018-07-30T00:59:00.028Z,0.00
2018-07-30T00:59:59.978Z,0.00
2018-07-30T01:00:59.895Z,0.00
2018-07-30T01:01:59.812Z,0.00
2018-07-30T01:02:59.744Z,0.00
2018-07-30T01:03:59.669Z,0.00
2018-07-30T01:04:59.626Z,0.00
2018-07-30T01:05:59.530Z,0.00
2018-07-30T01:06:59.453Z,0.00
2018-07-30T01:07:59.388Z,0.00
2018-07-30T01:08:59.311Z,0.00
2018-07-30T01:09:59.242Z,0.00
2018-07-30T01:10:59.169Z,0.00
2018-07-30T01:11:59.098Z,0.00
2018-07-30T01:12:59.029Z,0.00
2018-07-30T01:13:58.955Z,0.00
2018-07-30T01:14:58.886Z,0.00
2018-07-30T01:15:58.809Z,0.00
2018-07-30T01:16:58.737Z,0.00
2018-07-30T01:17:58.678Z,0.00
2018-07-30T01:18:58.595Z,0.00
2018-07-30T01:19:58.524Z,0.00
2018-07-30T01:20:58.448Z,0.00
2018-07-30T01:21:58.404Z,0.00
2018-07-30T01:22:58.305Z,0.00
2018-07-30T01:23:58.237Z,0.00
2018-07-30T01:24:58.165Z,0.00
2018-07-30T01:25:58.093Z,0.00
2018-07-30T01:26:58.024Z,0.00
2018-07-30T01:27:57.949Z,0.00
2018-07-30T01:28:57.875Z,0.00
2018-07-30T01:29:57.833Z,0.00
2018-07-30T01:30:57.743Z,0.00
2018-07-30T01:31:57.658Z,0.00
2018-07-30T01:32:57.588Z,0.00
2018-07-30T01:33:57.517Z,0.00
2018-07-30T01:34:57.446Z,0.00
2018-07-30T01:35:57.371Z,0.00
2018-07-30T01:36:57.300Z,0.00
2018-07-30T01:37:57.227Z,0.00
2018-07-30T01:38:57.175Z,0.00
2018-07-30T01:39:57.084Z,0.00
2018-07-30T01:40:57.016Z,0.00
2018-07-30T01:41:56.939Z,0.00
2018-07-30T01:42:56.889Z,0.00
2018-07-30T01:43:56.796Z,0.00
2018-07-30T01:44:56.727Z,0.00
2018-07-30T01:45:56.652Z,0.00
2018-07-30T01:46:56.580Z,0.00
2018-07-30T01:47:56.543Z,0.00
2018-07-30T01:48:56.434Z,0.00
2018-07-30T01:49:56.362Z,0.00
2018-07-30T01:50:56.293Z,0.00
2018-07-30T01:51:56.259Z,0.00
2018-07-30T01:52:56.149Z,0.00
2018-07-30T01:53:56.075Z,0.00
2018-07-30T01:54:56.003Z,0.00
2018-07-30T01:55:55.956Z,0.00
2018-07-30T01:56:55.857Z,0.00
2018-07-30T01:57:55.788Z,0.00
2018-07-30T01:58:55.725Z,0.00
2018-07-30T01:59:55.643Z,0.00
2018-07-30T02:00:55.570Z,0.00
2018-07-30T02:01:55.501Z,0.00
2018-07-30T02:02:55.427Z,0.00
2018-07-30T02:03:55.355Z,0.00
2018-07-30T02:04:55.281Z,0.00
2018-07-30T02:05:55.210Z,0.00
2018-07-30T02:06:55.142Z,0.00
2018-07-30T02:07:55.069Z,0.00
2018-07-30T02:08:55.020Z,0.00
2018-07-30T02:09:54.928Z,0.00
2018-07-30T02:10:54.852Z,0.00
2018-07-30T02:11:54.779Z,0.00
2018-07-30T02:12:54.705Z,0.00
2018-07-30T02:13:54.634Z,0.00
2018-07-30T02:14:54.561Z,0.00
2018-07-30T02:15:54.488Z,0.00
2018-07-30T02:16:54.415Z,0.00
2018-07-30T02:17:54.347Z,0.00
2018-07-30T02:18:54.273Z,0.00
2018-07-30T02:19:54.201Z,0.00
2018-07-30T02:20:54.128Z,0.00
2018-07-30T02:21:54.057Z,0.00
2018-07-30T02:22:53.988Z,0.00
2018-07-30T02:23:53.912Z,0.00
2018-07-30T02:24:53.841Z,0.00
2018-07-30T02:25:53.769Z,0.00
2018-07-30T02:26:53.695Z,0.00
2018-07-30T02:27:53.644Z,0.00
2018-07-30T02:28:53.550Z,0.00
2018-07-30T02:29:53.480Z,0.00
2018-07-30T02:30:53.408Z,0.00
2018-07-30T02:31:53.334Z,0.00
2018-07-30T02:32:53.262Z,0.00
2018-07-30T02:33:53.191Z,0.00
2018-07-30T02:34:53.136Z,0.00
2018-07-30T02:35:53.053Z,0.00
2018-07-30T02:36:52.985Z,0.00
2018-07-30T02:37:52.901Z,0.00
2018-07-30T02:38:52.830Z,0.00
2018-07-30T02:39:52.759Z,0.00
2018-07-30T02:40:52.699Z,0.00
2018-07-30T02:41:52.612Z,0.00
2018-07-30T02:42:52.542Z,0.00
2018-07-30T02:43:52.472Z,0.00
2018-07-30T02:44:52.399Z,0.00
2018-07-30T02:45:52.322Z,0.00
2018-07-30T02:46:52.251Z,0.00
2018-07-30T02:47:52.175Z,0.00
2018-07-30T02:48:52.106Z,0.00
2018-07-30T02:49:52.044Z,0.00
2018-07-30T02:50:51.965Z,0.00
2018-07-30T02:51:51.890Z,0.00
2018-07-30T02:52:51.816Z,0.00
2018-07-30T02:53:51.744Z,0.00
2018-07-30T02:54:51.674Z,0.00
2018-07-30T02:55:51.598Z,0.00
2018-07-30T02:56:51.528Z,0.00
2018-07-30T02:57:51.507Z,0.00
2018-07-30T02:58:51.384Z,0.00
2018-07-30T02:59:51.310Z,0.00
2018-07-30T03:00:51.239Z,0.00
2018-07-30T03:01:51.166Z,0.00
2018-07-30T03:02:51.089Z,0.00
2018-07-30T03:03:51.017Z,0.00
2018-07-30T03:04:50.945Z,0.00
2018-07-30T03:05:50.871Z,0.00
2018-07-30T03:06:50.802Z,0.00
2018-07-30T03:07:50.734Z,0.00
2018-07-30T03:08:50.655Z,0.00
2018-07-30T03:09:50.582Z,0.00
2018-07-30T03:10:50.510Z,0.00
2018-07-30T03:11:50.437Z,0.00
2018-07-30T03:12:50.366Z,0.00
2018-07-30T03:13:50.292Z,0.00
2018-07-30T03:14:50.217Z,0.00
2018-07-30T03:15:50.147Z,0.00
2018-07-30T03:16:50.075Z,0.00
2018-07-30T03:17:50.002Z,0.00
2018-07-30T03:18:49.928Z,0.00
2018-07-30T03:19:49.876Z,0.00
2018-07-30T03:20:49.785Z,0.00
2018-07-30T03:21:49.713Z,0.00
2018-07-30T03:22:49.639Z,0.00
2018-07-30T03:23:49.567Z,0.00
2018-07-30T03:24:49.493Z,0.00
2018-07-30T03:25:49.421Z,0.00
2018-07-30T03:26:49.359Z,0.00
2018-07-30T03:27:49.277Z,0.00
2018-07-30T03:28:49.281Z,0.00
2018-07-30T03:29:49.131Z,0.00
2018-07-30T03:30:49.062Z,0.00
2018-07-30T03:31:48.983Z,0.00
2018-07-30T03:32:48.913Z,0.00
2018-07-30T03:33:48.841Z,0.00
2018-07-30T03:34:48.770Z,0.00
2018-07-30T03:35:48.692Z,0.00
2018-07-30T03:36:48.620Z,0.00
2018-07-30T03:37:48.556Z,0.00
2018-07-30T03:38:48.477Z,5.63
2018-07-30T03:39:48.403Z,5.63
2018-07-30T03:40:48.341Z,5.63
2018-07-30T03:41:48.267Z,5.63
2018-07-30T03:42:48.186Z,5.63
2018-07-30T03:43:48.113Z,5.63
2018-07-30T03:44:48.036Z,5.63
2018-07-30T03:45:47.966Z,5.63
2018-07-30T03:46:47.893Z,11.25
2018-07-30T03:47:47.820Z,11.25
2018-07-30T03:48:47.760Z,11.25
2018-07-30T03:49:47.700Z,11.25
2018-07-30T03:50:47.619Z,11.25
2018-07-30T03:51:47.526Z,11.25
2018-07-30T03:52:47.453Z,16.88
2018-07-30T03:53:47.388Z,16.88
2018-07-30T03:54:47.379Z,16.88
2018-07-30T03:55:47.237Z,16.88
2018-07-30T03:56:47.164Z,16.88
2018-07-30T03:57:47.089Z,22.50
2018-07-30T03:58:47.017Z,22.50
2018-07-30T03:59:46.945Z,22.50
2018-07-30T04:00:46.884Z,22.50
2018-07-30T04:01:46.820Z,28.13
2018-07-30T04:02:46.726Z,28.13
2018-07-30T04:03:46.652Z,28.13
2018-07-30T04:04:46.576Z,28.13
2018-07-30T04:05:46.559Z,33.75
2018-07-30T04:06:46.433Z,33.75
2018-07-30T04:07:46.401Z,33.75
2018-07-30T04:08:46.313Z,33.75
2018-07-30T04:09:46.237Z,39.38
2018-07-30T04:10:46.168Z,39.38
2018-07-30T04:11:46.092Z,39.38
2018-07-30T04:12:46.020Z,45.00
2018-07-30T04:13:45.922Z,45.00
2018-07-30T04:14:45.848Z,45.00
2018-07-30T04:15:45.777Z,50.63
2018-07-30T04:16:45.700Z,50.63
2018-07-30T04:17:45.653Z,50.63
2018-07-30T04:18:45.553Z,50.63
2018-07-30T04:19:45.497Z,56.25
2018-07-30T04:20:45.408Z,56.25
2018-07-30T04:21:45.334Z,56.25
2018-07-30T04:22:45.275Z,56.25
2018-07-30T04:23:45.188Z,61.88
2018-07-30T04:24:45.116Z,61.88
2018-07-30T04:25:45.044Z,61.88
2018-07-30T04:26:44.989Z,61.88
2018-07-30T04:27:44.899Z,67.50
2018-07-30T04:28:44.824Z,67.50
2018-07-30T04:29:44.754Z,67.50
2018-07-30T04:30:44.709Z,67.50
2018-07-30T04:31:44.604Z,73.13
2018-07-30T04:32:44.530Z,73.13
2018-07-30T04:33:44.459Z,73.13
2018-07-30T04:34:44.387Z,73.13
2018-07-30T04:35:44.313Z,78.75
2018-07-30T04:36:44.252Z,78.75
2018-07-30T04:37:44.167Z,78.75
2018-07-30T04:38:44.096Z,78.75
2018-07-30T04:39:44.028Z,84.38
2018-07-30T04:40:43.952Z,84.38
2018-07-30T04:41:43.879Z,84.38
2018-07-30T04:42:43.805Z,84.38
2018-07-30T04:43:43.756Z,84.38
2018-07-30T04:44:43.657Z,90.00
2018-07-30T04:45:43.596Z,90.00
2018-07-30T04:46:43.512Z,90.00
2018-07-30T04:47:43.448Z,90.00
2018-07-30T04:48:43.368Z,90.00
2018-07-30T04:49:43.295Z,95.63
2018-07-30T04:50:43.257Z,95.63
2018-07-30T04:51:43.150Z,95.63
2018-07-30T04:52:43.079Z,95.63
2018-07-30T04:53:43.004Z,95.63
2018-07-30T04:54:42.932Z,95.63
2018-07-30T04:55:42.859Z,95.63
2018-07-30T04:56:42.786Z,95.63
2018-07-30T04:57:42.711Z,95.63
2018-07-30T04:58:42.640Z,95.63
2018-07-30T04:59:42.566Z,101.25
2018-07-30T05:00:42.493Z,101.25
2018-07-30T05:01:42.424Z,101.25
2018-07-30T05:02:42.351Z,101.25
2018-07-30T05:03:42.300Z,101.25
2018-07-30T05:04:42.207Z,101.25
2018-07-30T05:05:42.129Z,101.25
2018-07-30T05:06:42.061Z,106.88
2018-07-30T05:07:42.002Z,106.88
2018-07-30T05:08:41.914Z,106.88
2018-07-30T05:09:41.842Z,106.88
2018-07-30T05:10:41.772Z,106.88
2018-07-30T05:11:41.704Z,106.88
2018-07-30T05:12:41.637Z,112.50
2018-07-30T05:13:41.550Z,112.50
2018-07-30T05:14:41.480Z,112.50
2018-07-30T05:15:41.406Z,112.50
2018-07-30T05:16:41.332Z,112.50
2018-07-30T05:17:41.262Z,112.50
2018-07-30T05:18:41.189Z,112.50
2018-07-30T05:19:41.198Z,112.50
2018-07-30T05:20:41.055Z,118.13
2018-07-30T05:21:40.969Z,118.13
2018-07-30T05:22:40.898Z,118.13
2018-07-30T05:23:40.825Z,118.13
2018-07-30T05:24:40.750Z,118.13
2018-07-30T05:25:40.681Z,118.13
2018-07-30T05:26:40.606Z,118.13
2018-07-30T05:27:40.534Z,118.13
2018-07-30T05:28:40.462Z,123.75
2018-07-30T05:29:40.390Z,123.75
2018-07-30T05:30:40.320Z,123.75
2018-07-30T05:31:40.280Z,123.75
2018-07-30T05:32:40.180Z,123.75
2018-07-30T05:33:40.115Z,123.75
2018-07-30T05:34:40.029Z,123.75
2018-07-30T05:35:39.955Z,129.38
2018-07-30T05:36:39.887Z,129.38
2018-07-30T05:37:40.195Z,129.38
2018-07-30T05:38:39.739Z,129.38
2018-07-30T05:39:39.707Z,129.38
2018-07-30T05:40:39.657Z,129.38
2018-07-30T05:41:39.558Z,129.38
2018-07-30T05:42:39.461Z,129.38
2018-07-30T05:43:39.375Z,129.38
2018-07-30T05:44:39.371Z,129.38
2018-07-30T05:45:39.306Z,135.00
2018-07-30T05:46:39.161Z,135.00
2018-07-30T05:47:39.089Z,135.00
2018-07-30T05:48:39.018Z,135.00
2018-07-30T05:49:39.001Z,135.00
2018-07-30T05:50:38.936Z,135.00
2018-07-30T05:51:38.800Z,135.00
2018-07-30T05:52:38.730Z,135.00
2018-07-30T05:53:38.736Z,135.00
2018-07-30T05:54:38.652Z,135.00
2018-07-30T05:55:38.589Z,140.63
2018-07-30T05:56:38.456Z,140.63
2018-07-30T05:57:38.427Z,140.63
2018-07-30T05:58:38.364Z,140.63
2018-07-30T05:59:38.249Z,140.63
2018-07-30T06:00:38.237Z,140.63
2018-07-30T06:01:38.123Z,140.63
2018-07-30T06:02:38.082Z,140.63
2018-07-30T06:03:38.008Z,140.63
2018-07-30T06:04:37.922Z,140.63
2018-07-30T06:05:37.846Z,140.63
2018-07-30T06:06:37.796Z,140.63
2018-07-30T06:07:37.726Z,140.63
2018-07-30T06:08:37.607Z,140.63
2018-07-30T06:09:37.629Z,140.63
2018-07-30T06:10:37.435Z,146.25
2018-07-30T06:11:37.436Z,146.25
2018-07-30T06:12:37.347Z,146.25
2018-07-30T06:13:37.221Z,146.25
2018-07-30T06:14:37.223Z,146.25
2018-07-30T06:15:37.682Z,146.25
2018-07-30T06:16:37.066Z,146.25
2018-07-30T06:17:37.010Z,146.25
2018-07-30T06:18:36.925Z,146.25
2018-07-30T06:19:36.875Z,146.25
2018-07-30T06:20:36.721Z,146.25
2018-07-30T06:21:36.704Z,146.25
2018-07-30T06:22:36.654Z,146.25
2018-07-30T06:23:36.600Z,146.25
2018-07-30T06:24:37.147Z,146.25
2018-07-30T06:25:36.396Z,146.25
2018-07-30T06:26:36.291Z,146.25
2018-07-30T06:27:36.297Z,151.88
2018-07-30T06:28:36.268Z,151.88
2018-07-30T06:29:36.081Z,151.88
2018-07-30T06:30:36.008Z,151.88
2018-07-30T06:31:35.935Z,151.88
2018-07-30T06:32:35.865Z,151.88
2018-07-30T06:33:35.791Z,151.88
2018-07-30T06:34:35.738Z,151.88
2018-07-30T06:35:35.705Z,151.88
2018-07-30T06:36:35.617Z,151.88
2018-07-30T06:37:35.630Z,151.88
2018-07-30T06:38:35.611Z,151.88
2018-07-30T06:39:35.423Z,151.88
2018-07-30T06:40:35.369Z,151.88
2018-07-30T06:41:35.331Z,151.88
2018-07-30T06:42:35.156Z,151.88
2018-07-30T06:43:35.232Z,151.88
2018-07-30T06:44:35.170Z,151.88
2018-07-30T06:45:35.026Z,151.88
2018-07-30T06:46:34.883Z,151.88
2018-07-30T06:47:34.845Z,151.88
2018-07-30T06:48:34.725Z,151.88
2018-07-30T06:49:34.759Z,151.88
2018-07-30T06:50:34.632Z,151.88
2018-07-30T06:51:34.563Z,151.88
2018-07-30T06:52:34.508Z,151.88
2018-07-30T06:53:34.437Z,151.88
2018-07-30T06:54:34.364Z,157.50
2018-07-30T06:55:34.231Z,157.50
2018-07-30T06:56:34.165Z,157.50
2018-07-30T06:57:35.029Z,157.50
2018-07-30T06:58:34.073Z,157.50
2018-07-30T06:59:34.005Z,157.50
2018-07-30T07:00:33.891Z,157.50
2018-07-30T07:01:33.907Z,157.50
2018-07-30T07:02:34.678Z,157.50
2018-07-30T07:03:34.718Z,157.50
2018-07-30T07:04:34.192Z,157.50
2018-07-30T07:05:33.609Z,157.50
2018-07-30T07:06:33.517Z,157.50
2018-07-30T07:07:33.386Z,157.50
2018-07-30T07:08:33.380Z,157.50
2018-07-30T07:09:33.329Z,163.13
2018-07-30T07:10:34.167Z,163.13
2018-07-30T07:11:33.198Z,163.13
2018-07-30T07:12:33.091Z,163.13
2018-07-30T07:13:33.042Z,163.13
2018-07-30T07:14:32.966Z,168.75
2018-07-30T07:15:32.874Z,168.75
2018-07-30T07:16:32.831Z,168.75
2018-07-30T07:17:32.690Z,168.75
2018-07-30T07:18:32.608Z,168.75
2018-07-30T07:19:32.536Z,168.75
2018-07-30T07:20:32.468Z,174.38
2018-07-30T07:21:32.452Z,168.75
2018-07-30T07:22:32.330Z,168.75
2018-07-30T07:23:32.256Z,168.75
2018-07-30T07:24:32.186Z,168.75
2018-07-30T07:25:32.117Z,168.75
2018-07-30T07:26:32.047Z,168.75
2018-07-30T07:27:31.977Z,168.75
2018-07-30T07:28:31.951Z,168.75
2018-07-30T07:29:31.916Z,168.75
2018-07-30T07:30:31.808Z,168.75
2018-07-30T07:31:31.743Z,168.75
2018-07-30T07:32:31.623Z,168.75
2018-07-30T07:33:31.585Z,168.75
2018-07-30T07:34:31.550Z,168.75
2018-07-30T07:35:31.426Z,168.75
2018-07-30T07:36:31.401Z,168.75
2018-07-30T07:37:31.275Z,168.75
2018-07-30T07:38:31.226Z,168.75
2018-07-30T07:39:31.157Z,168.75
2018-07-30T07:40:31.084Z,168.75
2018-07-30T07:41:31.041Z,168.75
2018-07-30T07:42:31.030Z,168.75
2018-07-30T07:43:30.877Z,168.75
2018-07-30T07:44:30.786Z,168.75
2018-07-30T07:45:30.738Z,168.75
2018-07-30T07:46:30.646Z,168.75
2018-07-30T07:47:30.581Z,168.75
2018-07-30T07:48:30.580Z,168.75
2018-07-30T07:49:30.535Z,168.75
2018-07-30T07:50:30.509Z,168.75
2018-07-30T07:51:30.304Z,168.75
2018-07-30T07:52:30.245Z,168.75
2018-07-30T07:53:30.157Z,168.75
2018-07-30T07:54:30.144Z,168.75
2018-07-30T07:55:30.116Z,168.75
2018-07-30T07:56:29.969Z,168.75
2018-07-30T07:57:29.924Z,168.75
2018-07-30T07:58:30.705Z,168.75
2018-07-30T07:59:29.740Z,168.75
2018-07-30T08:00:29.673Z,174.38
2018-07-30T08:01:29.612Z,174.38
2018-07-30T08:02:29.531Z,174.38
2018-07-30T08:03:29.473Z,174.38
2018-07-30T08:04:29.496Z,174.38
2018-07-30T08:05:29.322Z,174.38
2018-07-30T08:06:29.253Z,174.38
2018-07-30T08:07:29.185Z,174.38
2018-07-30T08:08:29.141Z,174.38
2018-07-30T08:09:29.053Z,174.38
2018-07-30T08:10:29.037Z,174.38
2018-07-30T08:11:28.907Z,174.38
2018-07-30T08:12:29.697Z,174.38
2018-07-30T08:13:28.821Z,174.38
2018-07-30T08:14:28.700Z,174.38
2018-07-30T08:15:28.629Z,174.38
2018-07-30T08:16:28.638Z,174.38
2018-07-30T08:17:28.561Z,174.38
2018-07-30T08:18:28.522Z,174.38
2018-07-30T08:19:28.355Z,180.00
2018-07-30T08:20:28.285Z,180.00
2018-07-30T08:21:28.254Z,180.00
2018-07-30T08:22:28.154Z,180.00
2018-07-30T08:23:28.081Z,180.00
2018-07-30T08:24:28.015Z,180.00
2018-07-30T08:25:27.946Z,180.00
2018-07-30T08:26:27.877Z,180.00
2018-07-30T08:27:27.801Z,180.00
2018-07-30T08:28:27.736Z,180.00
2018-07-30T08:29:27.670Z,180.00
2018-07-30T08:30:27.680Z,180.00
2018-07-30T08:31:27.595Z,180.00
2018-07-30T08:32:27.455Z,180.00
2018-07-30T08:33:27.423Z,180.00
2018-07-30T08:34:28.197Z,185.63
2018-07-30T08:35:27.310Z,185.63
2018-07-30T08:36:27.182Z,185.63
2018-07-30T08:37:27.165Z,191.25
2018-07-30T08:38:27.722Z,191.25
2018-07-30T08:39:27.070Z,185.63
2018-07-30T08:40:27.040Z,185.63
2018-07-30T08:41:26.923Z,185.63
2018-07-30T08:42:26.889Z,185.63
2018-07-30T08:43:26.700Z,185.63
2018-07-30T08:44:26.726Z,185.63
2018-07-30T08:45:26.678Z,191.25
2018-07-30T08:46:26.497Z,185.63
2018-07-30T08:47:26.427Z,185.63
2018-07-30T08:48:26.363Z,196.88
2018-07-30T08:49:26.293Z,191.25
2018-07-30T08:50:27.208Z,191.25
2018-07-30T08:51:26.224Z,191.25
2018-07-30T08:52:26.187Z,191.25
2018-07-30T08:53:26.117Z,191.25
2018-07-30T08:54:26.015Z,191.25
2018-07-30T08:55:25.941Z,191.25
2018-07-30T08:56:25.899Z,191.25
2018-07-30T08:57:26.668Z,191.25
2018-07-30T08:58:25.743Z,191.25
2018-07-30T08:59:25.606Z,196.88
2018-07-30T09:00:25.539Z,196.88
2018-07-30T09:01:25.469Z,196.88
2018-07-30T09:02:25.400Z,196.88
2018-07-30T09:03:25.333Z,196.88
2018-07-30T09:04:25.268Z,196.88
2018-07-30T09:05:25.200Z,196.88
2018-07-30T09:06:25.129Z,202.50
2018-07-30T09:07:25.058Z,202.50
2018-07-30T09:08:24.989Z,202.50
2018-07-30T09:09:24.928Z,202.50
2018-07-30T09:10:24.856Z,202.50
2018-07-30T09:11:24.793Z,202.50
2018-07-30T09:12:24.730Z,202.50
2018-07-30T09:13:24.649Z,202.50
2018-07-30T09:14:24.585Z,208.13
2018-07-30T09:15:24.515Z,208.13
2018-07-30T09:16:24.445Z,208.13
2018-07-30T09:17:24.390Z,208.13
2018-07-30T09:18:24.412Z,208.13
2018-07-30T09:19:24.246Z,208.13
2018-07-30T09:20:24.180Z,208.13
2018-07-30T09:21:24.104Z,208.13
2018-07-30T09:22:24.044Z,208.13
2018-07-30T09:23:23.972Z,213.75
2018-07-30T09:24:23.905Z,213.75
2018-07-30T09:25:23.838Z,213.75
2018-07-30T09:26:23.767Z,213.75
2018-07-30T09:27:23.700Z,213.75
2018-07-30T09:28:23.631Z,213.75
2018-07-30T09:29:23.566Z,213.75
2018-07-30T09:30:23.495Z,213.75
2018-07-30T09:31:23.425Z,213.75
2018-07-30T09:32:23.362Z,219.38
2018-07-30T09:33:23.291Z,219.38
2018-07-30T09:34:23.234Z,219.38
2018-07-30T09:35:23.178Z,219.38
2018-07-30T09:36:23.093Z,219.38
2018-07-30T09:37:23.023Z,219.38
2018-07-30T09:38:22.957Z,219.38
2018-07-30T09:39:23.005Z,225.00
2018-07-30T09:40:22.815Z,225.00
2018-07-30T09:41:22.754Z,225.00
2018-07-30T09:42:22.684Z,225.00
2018-07-30T09:43:22.614Z,225.00
2018-07-30T09:44:22.555Z,225.00
2018-07-30T09:45:22.477Z,225.00
2018-07-30T09:46:22.415Z,225.00
2018-07-30T09:47:22.354Z,230.63
2018-07-30T09:48:22.276Z,230.63
2018-07-30T09:49:22.210Z,230.63
2018-07-30T09:50:22.146Z,230.63
2018-07-30T09:51:22.074Z,230.63
2018-07-30T09:52:22.008Z,236.25
2018-07-30T09:53:21.944Z,236.25
2018-07-30T09:54:21.872Z,236.25
2018-07-30T09:55:21.804Z,236.25
2018-07-30T09:56:21.873Z,236.25
2018-07-30T09:57:21.675Z,241.88
2018-07-30T09:58:21.601Z,241.88
2018-07-30T09:59:21.539Z,241.88
2018-07-30T10:00:21.468Z,241.88
2018-07-30T10:01:21.398Z,241.88
2018-07-30T10:02:21.333Z,241.88
2018-07-30T10:03:21.265Z,241.88
2018-07-30T10:04:21.205Z,241.88
2018-07-30T10:05:21.143Z,241.88
2018-07-30T10:06:21.131Z,247.50
2018-07-30T10:07:21.042Z,247.50
2018-07-30T10:08:20.931Z,247.50
2018-07-30T10:09:20.863Z,247.50
2018-07-30T10:10:20.806Z,253.13
2018-07-30T10:11:20.734Z,253.13
2018-07-30T10:12:20.659Z,258.75
2018-07-30T10:13:20.592Z,258.75
2018-07-30T10:14:20.527Z,258.75
2018-07-30T10:15:20.459Z,264.38
2018-07-30T10:16:20.393Z,264.38
2018-07-30T10:17:20.334Z,264.38
2018-07-30T10:18:20.369Z,270.00
2018-07-30T10:19:20.192Z,270.00
2018-07-30T10:20:20.125Z,270.00
2018-07-30T10:21:20.053Z,275.63
2018-07-30T10:22:19.995Z,275.63
2018-07-30T10:23:19.920Z,275.63
2018-07-30T10:24:19.864Z,275.63
2018-07-30T10:25:19.787Z,286.88
2018-07-30T10:26:19.722Z,281.25
2018-07-30T10:27:19.652Z,286.88
2018-07-30T10:28:19.593Z,286.88
2018-07-30T10:29:19.524Z,286.88
2018-07-30T10:30:19.455Z,292.50
2018-07-30T10:31:19.388Z,298.13
2018-07-30T10:32:19.320Z,298.13
2018-07-30T10:33:19.250Z,298.13
2018-07-30T10:34:19.193Z,298.13
2018-07-30T10:35:19.119Z,303.75
2018-07-30T10:36:19.055Z,309.38
2018-07-30T10:37:18.986Z,315.00
2018-07-30T10:38:19.021Z,320.63
2018-07-30T10:39:18.853Z,331.88
2018-07-30T10:40:18.787Z,331.88
2018-07-30T10:41:18.724Z,337.50
2018-07-30T10:42:18.651Z,337.50
2018-07-30T10:43:18.585Z,343.13
2018-07-30T10:44:18.525Z,343.13
2018-07-30T10:45:18.453Z,343.13
2018-07-30T10:46:18.406Z,348.75
2018-07-30T10:47:18.324Z,348.75
2018-07-30T10:48:18.256Z,348.75
2018-07-30T10:49:18.187Z,354.38
2018-07-30T10:50:18.122Z,354.38
2018-07-30T10:51:18.054Z,354.38
2018-07-30T10:52:17.987Z,360.00
2018-07-30T10:53:17.927Z,360.00
2018-07-30T10:54:17.857Z,360.00
2018-07-30T10:55:17.792Z,365.63
2018-07-30T10:56:17.722Z,365.63
2018-07-30T10:57:17.654Z,371.25
2018-07-30T10:58:17.591Z,371.25
2018-07-30T10:59:17.533Z,376.88
2018-07-30T11:00:17.462Z,376.88
2018-07-30T11:01:17.392Z,382.50
2018-07-30T11:02:17.327Z,388.13
2018-07-30T11:03:17.259Z,388.13
2018-07-30T11:04:17.193Z,393.75
2018-07-30T11:05:17.132Z,393.75
2018-07-30T11:06:17.061Z,399.38
2018-07-30T11:07:16.996Z,399.38
2018-07-30T11:08:16.932Z,399.38
2018-07-30T11:09:16.881Z,399.38
2018-07-30T11:10:16.796Z,405.00
2018-07-30T11:11:16.735Z,405.00
2018-07-30T11:12:16.671Z,410.63
2018-07-30T11:13:16.600Z,416.25
2018-07-30T11:14:16.537Z,416.25
2018-07-30T11:15:16.470Z,421.88
2018-07-30T11:16:16.427Z,421.88
2018-07-30T11:17:16.343Z,421.88
2018-07-30T11:18:16.273Z,427.50
2018-07-30T11:19:16.208Z,427.50
2018-07-30T11:20:16.146Z,427.50
2018-07-30T11:21:16.077Z,433.13
2018-07-30T11:22:16.018Z,444.38
2018-07-30T11:23:15.963Z,444.38
2018-07-30T11:24:15.877Z,444.38
2018-07-30T11:25:15.818Z,450.00
2018-07-30T11:26:15.752Z,455.63
2018-07-30T11:27:15.682Z,455.63
2018-07-30T11:28:15.652Z,461.25
2018-07-30T11:29:15.552Z,466.88
2018-07-30T11:30:15.559Z,478.13
2018-07-30T11:31:15.427Z,472.50
2018-07-30T11:32:15.356Z,472.50
2018-07-30T11:33:15.292Z,478.13
2018-07-30T11:34:15.232Z,478.13
2018-07-30T11:35:15.168Z,478.13
2018-07-30T11:36:15.096Z,478.13
2018-07-30T11:37:15.035Z,483.75
2018-07-30T11:38:14.967Z,483.75
2018-07-30T11:39:14.908Z,483.75
2018-07-30T11:40:14.849Z,478.13
2018-07-30T11:41:14.772Z,483.75
2018-07-30T11:42:14.710Z,489.38
2018-07-30T11:43:14.644Z,489.38
2018-07-30T11:44:14.578Z,489.38
2018-07-30T11:45:14.514Z,495.00
2018-07-30T11:46:14.460Z,495.00
2018-07-30T11:47:14.392Z,506.25
2018-07-30T11:48:14.342Z,495.00
2018-07-30T11:49:14.254Z,495.00
2018-07-30T11:50:14.190Z,495.00
2018-07-30T11:51:14.126Z,495.00
2018-07-30T11:52:14.069Z,500.63
2018-07-30T11:53:14.005Z,500.63
2018-07-30T11:54:13.972Z,500.63
2018-07-30T11:55:13.866Z,506.25
2018-07-30T11:56:13.801Z,506.25
2018-07-30T11:57:13.743Z,511.88
2018-07-30T11:58:13.681Z,517.50
2018-07-30T11:59:13.608Z,517.50
2018-07-30T12:00:13.542Z,523.13
2018-07-30T12:01:13.518Z,523.13
2018-07-30T12:02:13.415Z,528.75
2018-07-30T12:03:13.351Z,534.38
2018-07-30T12:04:13.292Z,540.00
2018-07-30T12:05:13.222Z,545.63
2018-07-30T12:06:13.159Z,551.25
2018-07-30T12:07:13.093Z,551.25
2018-07-30T12:08:13.030Z,551.25
2018-07-30T12:09:12.971Z,556.88
2018-07-30T12:10:12.907Z,556.88
2018-07-30T12:11:12.835Z,556.88
2018-07-30T12:12:12.777Z,556.88
2018-07-30T12:13:12.708Z,562.50
2018-07-30T12:14:12.640Z,562.50
2018-07-30T12:15:12.584Z,573.75
2018-07-30T12:16:12.512Z,573.75
2018-07-30T12:17:12.451Z,573.75
2018-07-30T12:18:12.382Z,579.38
2018-07-30T12:19:12.320Z,585.00
2018-07-30T12:20:12.304Z,590.63
2018-07-30T12:21:12.298Z,590.63
2018-07-30T12:22:12.129Z,596.25
2018-07-30T12:23:12.092Z,601.88
2018-07-30T12:24:12.068Z,607.50
2018-07-30T12:25:11.957Z,607.50
2018-07-30T12:26:11.909Z,613.13
2018-07-30T12:27:11.860Z,618.75
2018-07-30T12:28:11.762Z,618.75
2018-07-30T12:29:11.731Z,624.38
2018-07-30T12:30:11.696Z,630.00
2018-07-30T12:31:11.682Z,635.63
2018-07-30T12:32:11.524Z,641.25
2018-07-30T12:33:11.432Z,630.00
2018-07-30T12:34:11.391Z,630.00
2018-07-30T12:35:11.312Z,630.00
2018-07-30T12:36:11.345Z,635.63
2018-07-30T12:37:11.275Z,641.25
2018-07-30T12:38:11.177Z,652.50
2018-07-30T12:39:11.075Z,663.75
2018-07-30T12:40:10.984Z,680.63
2018-07-30T12:41:10.960Z,731.25
2018-07-30T12:42:10.905Z,1766.25
2018-07-30T12:43:10.805Z,3650.63